Time;durP1;ratioP1;P1;durP2;ratioP2;P2;SDS_P1;SDS_P2;PMS_P1;PMS_P2;Temp;Humidity;BMP_temperature;BMP_pressure;BME280_temperature;BME280_humidity;BME280_pressure;Samples;Min_cycle;Max_cycle;Signal;HPM_P1;HPM_P2
2021/01/18 00:00:59;;;;;;;63.80;24.30;;;;;;;;;;4902039;28;20667;-73
2021/01/18 00:03:22;;;;;;;58.80;24.53;;;;;;;;;;4915128;28;20651;-74
2021/01/18 00:05:44;;;;;;;70.73;26.50;;;;;;;;;;4906854;28;20702;-74
2021/01/18 00:08:06;;;;;;;69.57;26.23;;;;;;;;;;4903081;28;21467;-73
2021/01/18 00:10:29;;;;;;;65.37;24.07;;;-9.50;99.90;;;;;;4906281;28;21190;-74
2021/01/18 00:12:54;;;;;;;61.47;23.90;;;-9.40;1.00;;;;;;4909452;28;21266;-73
2021/01/18 00:15:17;;;;;;;67.40;25.77;;;-9.50;1.00;;;;;;4904635;28;20633;-74
2021/01/18 00:17:40;;;;;;;68.30;24.07;;;;;;;;;;4903707;28;20690;-74
2021/01/18 00:20:02;;;;;;;56.97;21.97;;;-9.40;1.00;;;;;;4898694;28;20975;-75
2021/01/18 00:22:25;;;;;;;66.10;24.43;;;;;;;;;;4902983;28;20653;-74
2021/01/18 00:24:47;;;;;;;55.20;22.47;;;-9.40;99.90;;;;;;4904441;28;20609;-74
2021/01/18 00:27:11;;;;;;;56.10;22.13;;;-9.40;1.00;;;;;;4904008;28;20670;-75
2021/01/18 00:29:33;;;;;;;54.97;21.90;;;;;;;;;;4903444;28;20709;-75
2021/01/18 00:31:58;;;;;;;63.47;23.40;;;;;;;;;;4905871;28;20581;-74
2021/01/18 00:34:20;;;;;;;54.97;21.87;;;-9.20;99.90;;;;;;4910281;28;20616;-73
2021/01/18 00:36:46;;;;;;;51.07;20.77;;;-9.20;1.00;;;;;;4902078;28;20621;-74
2021/01/18 00:39:09;;;;;;;63.77;23.93;;;;;;;;;;4911077;28;21003;-74
2021/01/18 00:41:31;;;;;;;62.13;22.17;;;;;;;;;;4905260;28;20641;-74
2021/01/18 00:43:54;;;;;;;59.70;20.07;;;-8.90;1.00;;;;;;4904837;28;20636;-73
2021/01/18 00:46:18;;;;;;;49.07;19.50;;;-9.50;1.00;;;;;;4906129;28;20612;-74
2021/01/18 00:48:40;;;;;;;47.30;19.47;;;;;;;;;;4900254;28;20694;-74
2021/01/18 00:51:02;;;;;;;48.43;19.10;;;;;;;;;;4907065;28;20646;-74
2021/01/18 00:53:25;;;;;;;48.87;18.60;;;;;;;;;;4910460;28;20617;-73
2021/01/18 00:55:47;;;;;;;48.70;19.40;;;-10.20;99.90;;;;;;4904527;28;20964;-75
2021/01/18 00:58:30;;;;;;;52.10;21.50;;;;;;;;;;4902147;28;20678;-74
2021/01/18 01:01:14;;;;;;;54.63;21.00;;;-9.60;1.00;;;;;;4901496;28;20991;-73
2021/01/18 01:03:37;;;;;;;48.83;20.63;;;;;;;;;;4910704;28;20628;-74
2021/01/18 01:06:00;;;;;;;57.83;21.40;;;;;;;;;;4903757;28;20717;-74
2021/01/18 01:08:22;;;;;;;55.97;21.60;;;;;;;;;;4886890;28;20715;-72
2021/01/18 01:10:44;;;;;;;59.90;22.43;;;;;;;;;;4906796;28;21024;-72
2021/01/18 01:13:07;;;;;;;55.83;21.43;;;-9.60;1.00;;;;;;4911912;28;21018;-73
2021/01/18 01:15:30;;;;;;;48.10;20.30;;;;;;;;;;4907313;28;21211;-72
2021/01/18 01:17:53;;;;;;;56.07;22.50;;;-9.70;1.00;;;;;;4906496;28;20617;-73
2021/01/18 01:20:18;;;;;;;63.07;23.20;;;-9.80;1.00;;;;;;4907318;28;20686;-73
2021/01/18 01:22:40;;;;;;;62.53;23.17;;;;;;;;;;4904453;28;20683;-73
2021/01/18 01:25:02;;;;;;;60.10;23.03;;;;;;;;;;4904402;28;20618;-74
2021/01/18 01:27:25;;;;;;;54.67;21.63;;;;;;;;;;4906473;28;20655;-72
2021/01/18 01:29:47;;;;;;;54.93;19.73;;;;;;;;;;4908997;28;20644;-76
2021/01/18 01:32:09;;;;;;;48.07;19.73;;;;;;;;;;4905080;28;20617;-75
2021/01/18 01:34:33;;;;;;;53.47;20.17;;;-9.90;99.90;;;;;;4903507;28;21201;-74
2021/01/18 01:36:56;;;;;;;48.37;20.03;;;;;;;;;;4900493;28;21029;-73
2021/01/18 01:39:18;;;;;;;49.43;20.30;;;;;;;;;;4901523;28;21173;-76
2021/01/18 01:41:40;;;;;;;47.77;20.57;;;;;;;;;;4908432;28;20645;-73
2021/01/18 01:44:03;;;;;;;55.50;22.73;;;;;;;;;;4905779;28;20652;-75
2021/01/18 01:46:25;;;;;;;53.90;21.83;;;;;;;;;;4906657;28;21319;-74
2021/01/18 01:48:47;;;;;;;53.87;21.07;;;-10.70;1.00;;;;;;4900581;28;20618;-76
2021/01/18 01:51:10;;;;;;;62.67;24.97;;;-10.20;99.90;;;;;;4904828;28;21223;-74
2021/01/18 01:53:34;;;;;;;59.53;23.50;;;-10.30;99.90;;;;;;4902680;28;20629;-75
2021/01/18 01:55:56;;;;;;;65.60;25.37;;;;;;;;;;4897096;28;20683;-73
2021/01/18 01:58:18;;;;;;;61.77;23.47;;;;;;;;;;4905796;28;20665;-74
2021/01/18 02:00:42;;;;;;;66.43;25.80;;;-10.40;1.00;;;;;;4906465;28;20669;-73
2021/01/18 02:03:06;;;;;;;63.47;24.37;;;-10.40;1.00;;;;;;4906367;28;20710;-74
2021/01/18 02:05:28;;;;;;;69.53;26.50;;;-10.30;4.60;;;;;;4897940;28;20597;-75
2021/01/18 02:07:51;;;;;;;75.97;27.63;;;-10.50;1.00;;;;;;4907045;28;20645;-72
2021/01/18 02:10:13;;;;;;;78.87;28.70;;;;;;;;;;4904956;28;20625;-74
2021/01/18 02:12:36;;;;;;;87.37;29.80;;;-10.50;99.90;;;;;;4903641;28;21100;-74
2021/01/18 02:15:18;;;;;;;87.33;29.50;;;-10.60;1.00;;;;;;4903735;28;21181;-74
2021/01/18 02:17:53;;;;;;;77.77;27.23;;;-10.70;1.00;;;;;;4907645;28;20749;-73
2021/01/18 02:20:58;;;;;;;77.93;28.23;;;-10.80;1.00;;;;;;4899845;28;21009;-74
2021/01/18 02:23:40;;;;;;;82.20;27.33;;;-11.00;1.00;;;;;;4897829;28;20613;-73
2021/01/18 02:26:06;;;;;;;82.20;29.47;;;-11.00;1.00;;;;;;4904985;28;20638;-74
2021/01/18 02:28:44;;;;;;;74.63;28.50;;;-11.20;1.00;;;;;;4899213;28;20651;-74
2021/01/18 02:31:42;;;;;;;63.13;25.13;;;-11.10;99.90;;;;;;4904884;28;20648;-74
2021/01/18 02:34:52;;;;;;;65.47;24.20;;;-11.10;1.00;;;;;;4901886;28;20719;-74
2021/01/18 02:37:47;;;;;;;77.20;28.80;;;-10.90;1.00;;;;;;4905285;28;20592;-74
2021/01/18 02:40:13;;;;;;;81.37;30.97;;;-10.80;1.00;;;;;;4909574;28;20630;-73
2021/01/18 02:42:41;;;;;;;81.10;29.83;;;-11.00;99.90;;;;;;4901494;28;20650;-73
2021/01/18 02:45:05;;;;;;;87.33;31.00;;;-11.00;99.90;;;;;;4910663;28;21173;-74
2021/01/18 02:47:30;;;;;;;79.03;30.40;;;-10.80;1.00;;;;;;4890491;28;20622;-73
2021/01/18 02:49:53;;;;;;;71.00;25.97;;;;;;;;;;4899519;28;20630;-73
2021/01/18 02:52:16;;;;;;;64.50;25.10;;;-11.00;99.90;;;;;;4898346;28;20663;-73
2021/01/18 02:54:39;;;;;;;62.37;22.97;;;-11.00;1.00;;;;;;4904741;28;21244;-73
2021/01/18 02:57:04;;;;;;;67.90;24.77;;;-10.90;99.90;;;;;;4911427;28;20690;-73
2021/01/18 02:59:27;;;;;;;66.63;24.53;;;-10.90;1.00;;;;;;4904502;28;21000;-74
2021/01/18 03:02:15;;;;;;;59.50;23.13;;;-10.50;99.90;;;;;;4897697;28;20645;-72
2021/01/18 03:05:00;;;;;;;71.33;23.80;;;-10.70;99.90;;;;;;4906790;28;21224;-74
2021/01/18 03:07:32;;;;;;;76.07;24.87;;;-9.30;99.90;;;;;;4899875;28;21065;-75
2021/01/18 03:10:02;;;;;;;61.57;23.07;;;-10.60;99.90;;;;;;4904583;28;20674;-74
2021/01/18 03:12:29;;;;;;;57.83;21.00;;;-10.60;1.00;;;;;;4900401;28;20614;-72
2021/01/18 03:14:55;;;;;;;56.67;20.73;;;-10.50;1.00;;;;;;4905758;28;21154;-74
2021/01/18 03:17:22;;;;;;;58.90;22.57;;;-10.60;99.90;;;;;;4902098;28;21153;-74
2021/01/18 03:19:46;;;;;;;58.93;23.33;;;-10.60;99.90;;;;;;4906411;28;21211;-74
2021/01/18 03:22:08;;;;;;;54.73;21.43;;;;;;;;;;4904473;28;20640;-74
2021/01/18 03:24:30;;;;;;;53.07;19.10;;;;;;;;;;4906249;28;21158;-73
2021/01/18 03:26:53;;;;;;;48.33;18.43;;;-10.60;99.90;;;;;;4901979;28;20622;-72
2021/01/18 03:29:16;;;;;;;52.53;19.10;;;-10.60;99.90;;;;;;4905580;28;20624;-73
2021/01/18 03:31:38;;;;;;;46.37;17.77;;;;;;;;;;4905318;28;20672;-73
2021/01/18 03:34:01;;;;;;;44.03;17.40;;;;;;;;;;4906525;28;20651;-73
2021/01/18 03:36:23;;;;;;;42.10;18.10;;;;;;;;;;4909109;28;20617;-72
2021/01/18 03:38:45;;;;;;;47.27;18.60;;;-10.40;1.00;;;;;;4907258;28;20620;-73
2021/01/18 03:41:07;;;;;;;44.40;18.63;;;;;;;;;;4908718;28;21326;-72
2021/01/18 03:43:31;;;;;;;48.43;17.93;;;-10.40;1.00;;;;;;4906860;28;20694;-74
2021/01/18 03:45:53;;;;;;;42.23;16.60;;;;;;;;;;4903705;28;20601;-73
2021/01/18 03:48:15;;;;;;;47.27;17.63;;;;;;;;;;4906115;28;20646;-74
2021/01/18 03:50:38;;;;;;;40.80;16.67;;;-10.50;1.00;;;;;;4899312;28;21043;-73
2021/01/18 03:53:01;;;;;;;45.97;18.93;;;;;;;;;;4909258;28;20624;-73
2021/01/18 03:55:23;;;;;;;45.07;17.47;;;;;;;;;;4913092;28;20626;-73
2021/01/18 03:57:46;;;;;;;44.20;19.33;;;-10.70;1.00;;;;;;4911185;28;21027;-73
2021/01/18 04:00:10;;;;;;;47.10;17.90;;;-10.60;1.00;;;;;;4900293;28;20613;-74
2021/01/18 04:02:33;;;;;;;49.17;20.37;;;;;;;;;;4907618;28;20692;-74
2021/01/18 04:04:55;;;;;;;48.73;19.47;;;;;;;;;;4905248;28;20609;-75
2021/01/18 04:07:17;;;;;;;47.20;19.07;;;;;;;;;;4909184;28;20646;-74
2021/01/18 04:09:39;;;;;;;51.60;19.77;;;;;;;;;;4904910;28;21026;-74
2021/01/18 04:12:04;;;;;;;50.27;20.03;;;-11.40;1.00;;;;;;4884232;28;21194;-74
2021/01/18 04:14:26;;;;;;;58.73;20.83;;;-11.40;61.90;;;;;;4903870;28;20655;-74
2021/01/18 04:16:49;;;;;;;41.33;17.93;;;-11.70;1.00;;;;;;4903955;28;20672;-75
2021/01/18 04:19:11;;;;;;;50.83;20.03;;;-11.80;99.90;;;;;;4906662;28;20675;-72
2021/01/18 04:21:37;;;;;;;48.63;20.10;;;-12.00;1.00;;;;;;4913320;28;21004;-74
2021/01/18 04:23:59;;;;;;;49.73;19.30;;;-11.60;1.00;;;;;;4900647;28;20702;-72
2021/01/18 04:26:21;;;;;;;50.83;19.77;;;;;;;;;;4908713;28;20614;-73
2021/01/18 04:28:43;;;;;;;44.87;19.13;;;;;;;;;;4908396;28;20663;-72
2021/01/18 04:31:06;;;;;;;51.50;18.97;;;;;;;;;;4901187;28;20702;-74
2021/01/18 04:33:29;;;;;;;44.50;17.87;;;-12.70;99.90;;;;;;4906443;28;20958;-75
2021/01/18 04:35:51;;;;;;;43.57;17.10;;;;;;;;;;4904115;28;20610;-74
2021/01/18 04:38:14;;;;;;;45.83;18.70;;;;;;;;;;4905446;28;20621;-75
2021/01/18 04:40:37;;;;;;;52.00;20.20;;;;;;;;;;4903852;28;20629;-74
2021/01/18 04:42:59;;;;;;;51.53;18.87;;;-13.30;1.00;;;;;;4903894;28;20646;-74
2021/01/18 04:45:23;;;;;;;43.33;19.57;;;-13.40;1.00;;;;;;4905404;28;20614;-73
2021/01/18 04:47:47;;;;;;;46.17;19.77;;;-13.40;1.00;;;;;;4886202;28;20677;-73
2021/01/18 04:50:13;;;;;;;44.43;17.57;;;-13.60;99.90;;;;;;4901916;28;21146;-74
2021/01/18 04:52:49;;;;;;;44.17;17.33;;;-13.70;99.90;;;;;;4906054;28;20613;-73
2021/01/18 04:55:23;;;;;;;52.33;19.47;;;-13.80;99.90;;;;;;4906920;28;20585;-74
2021/01/18 04:57:59;;;;;;;51.77;18.80;;;-13.90;99.90;;;;;;4895003;28;20699;-74
2021/01/18 05:00:28;;;;;;;50.00;18.73;;;-14.00;99.90;;;;;;4900668;28;20650;-76
2021/01/18 05:02:53;;;;;;;53.78;19.48;;;-14.10;99.90;;;;;;4906644;28;20687;-75
2021/01/18 05:05:29;;;;;;;47.30;18.92;;;-14.20;99.90;;;;;;4905514;28;20193;-74
2021/01/18 05:08:18;;;;;;;48.80;19.40;;;-14.00;1.00;;;;;;4905705;28;20224;-75
2021/01/18 05:10:43;;;;;;;55.17;18.45;;;-14.40;1.00;;;;;;4908192;28;20184;-77
2021/01/18 05:13:05;;;;;;;50.73;20.30;;;;;;;;;;4912163;28;20204;-76
2021/01/18 05:15:28;;;;;;;44.55;19.10;;;-14.50;1.00;;;;;;4904518;28;20675;-76
2021/01/18 05:17:53;;;;;;;54.92;19.20;;;-14.60;1.00;;;;;;4902574;28;20197;-76
2021/01/18 05:20:18;;;;;;;43.97;18.60;;;-14.70;1.00;;;;;;4904460;28;20199;-75
2021/01/18 05:22:43;;;;;;;52.85;19.58;;;-14.80;99.90;;;;;;4906100;28;20806;-76
2021/01/18 05:25:07;;;;;;;62.58;20.77;;;-14.70;99.90;;;;;;4906976;28;20579;-79
2021/01/18 05:27:29;;;;;;;53.33;18.48;;;;;;;;;;4904660;28;20233;-79
2021/01/18 05:29:56;;;;;;;53.28;19.17;;;-15.00;99.90;;;;;;4909695;28;20685;-79
2021/01/18 05:32:23;;;;;;;56.80;20.65;;;-15.00;1.00;;;;;;4900290;28;20535;-80
2021/01/18 05:34:45;;;;;;;54.50;21.60;;;;;;;;;;4907492;28;20608;-78
2021/01/18 05:37:08;;;;;;;54.78;21.60;;;-15.30;47.70;;;;;;4908322;28;20578;-80
2021/01/18 05:39:33;;;;;;;47.38;18.73;;;-15.40;97.10;;;;;;4905837;28;20188;-78
2021/01/18 05:41:55;;;;;;;53.78;21.27;;;;;;;;;;4909476;28;20200;-80
2021/01/18 05:44:19;;;;;;;46.78;17.65;;;-15.50;99.90;;;;;;4901332;28;20286;-80
2021/01/18 05:46:42;;;;;;;47.22;18.75;;;-15.50;99.90;;;;;;4888660;28;20253;-79
2021/01/18 05:49:09;;;;;;;41.15;17.88;;;-15.60;99.90;;;;;;4880659;28;20182;-77
2021/01/18 05:51:32;;;;;;;52.80;20.60;;;-15.60;1.00;;;;;;4905456;28;20463;-76
2021/01/18 05:53:56;;;;;;;50.17;21.55;;;-15.60;1.00;;;;;;4906779;28;20715;-76
2021/01/18 05:56:19;;;;;;;50.00;19.98;;;-15.60;1.00;;;;;;4904719;28;20249;-76
2021/01/18 05:58:41;;;;;;;56.70;23.00;;;;;;;;;;4902531;28;20197;-77
2021/01/18 06:01:03;;;;;;;50.97;21.73;;;;;;;;;;4901860;28;20253;-78
2021/01/18 06:03:30;;;;;;;45.28;21.20;;;-16.40;1.00;;;;;;4901347;28;20204;-77
2021/01/18 06:05:52;;;;;;;55.90;21.15;;;;;;;;;;4906514;28;20641;-77
2021/01/18 06:08:16;;;;;;;56.35;20.95;;;-15.30;93.20;;;;;;4904705;28;20270;-76
2021/01/18 06:10:39;;;;;;;48.63;19.05;;;-15.20;1.00;;;;;;4885357;28;20331;-77
2021/01/18 06:13:02;;;;;;;46.22;17.90;;;-14.80;1.00;;;;;;4905321;28;20188;-76
2021/01/18 06:15:26;;;;;;;53.30;20.15;;;-15.00;1.00;;;;;;4908167;28;20185;-76
2021/01/18 06:17:50;;;;;;;43.83;19.38;;;-14.90;1.00;;;;;;4906548;28;20176;-77
2021/01/18 06:20:19;;;;;;;50.67;19.67;;;-14.90;1.00;;;;;;4905685;28;20183;-77
2021/01/18 06:22:41;;;;;;;56.72;21.35;;;;;;;;;;4885805;28;20309;-77
2021/01/18 06:25:14;;;;;;;55.03;20.90;;;-14.90;1.00;;;;;;4903822;28;20234;-78
2021/01/18 06:27:37;;;;;;;59.45;23.92;;;-15.10;1.00;;;;;;4903409;28;20200;-77
2021/01/18 06:29:59;;;;;;;50.20;21.08;;;;;;;;;;4908680;28;20216;-76
2021/01/18 06:32:28;;;;;;;54.80;19.73;;;-15.20;1.00;;;;;;4903573;28;20661;-77
2021/01/18 06:34:57;;;;;;;54.63;20.80;;;-15.40;1.00;;;;;;4903481;28;20589;-74
2021/01/18 06:37:20;;;;;;;53.90;21.67;;;;;;;;;;4905237;28;20579;-76
2021/01/18 06:39:42;;;;;;;48.60;19.65;;;;;;;;;;4901188;28;20235;-77
2021/01/18 06:42:05;;;;;;;58.00;22.65;;;;;;;;;;4904132;28;20230;-76
2021/01/18 06:44:40;;;;;;;49.05;21.00;;;-15.80;99.90;;;;;;4880641;28;20212;-76
2021/01/18 06:47:23;;;;;;;42.28;16.10;;;-15.90;1.00;;;;;;4908767;28;20188;-75
2021/01/18 06:49:46;;;;;;;40.83;17.33;;;;;;;;;;4896605;28;20262;-74
2021/01/18 06:52:08;;;;;;;59.63;20.85;;;;;;;;;;4898434;28;20250;-74
2021/01/18 06:54:35;;;;;;;58.00;23.42;;;-16.40;99.90;;;;;;4897429;28;20699;-74
2021/01/18 06:57:13;;;;;;;59.67;20.80;;;-16.10;1.00;;;;;;4906502;28;20188;-74
2021/01/18 06:59:55;;;;;;;47.92;20.85;;;-16.00;1.00;;;;;;4905382;28;20226;-74
2021/01/18 07:02:29;;;;;;;54.17;22.27;;;-15.80;99.90;;;;;;4903728;28;20238;-75
2021/01/18 07:04:51;;;;;;;51.67;20.50;;;-16.00;76.50;;;;;;4909751;28;20592;-74
2021/01/18 07:07:24;;;;;;;62.38;24.30;;;-16.00;1.00;;;;;;4912949;28;20200;-74
2021/01/18 07:09:54;;;;;;;60.30;25.33;;;-16.00;99.90;;;;;;4910375;28;20176;-74
2021/01/18 07:12:18;;;;;;;61.33;23.75;;;-16.00;1.00;;;;;;4907312;28;20188;-75
2021/01/18 07:14:42;;;;;;;50.70;21.60;;;-16.00;99.90;;;;;;4905406;28;20192;-75
2021/01/18 07:17:08;;;;;;;98.32;31.17;;;-15.90;1.00;;;;;;4910195;28;20230;-74
2021/01/18 07:19:36;;;;;;;66.15;24.25;;;-15.90;99.90;;;;;;4901041;28;20188;-75
2021/01/18 07:22:12;;;;;;;54.85;21.98;;;-15.80;1.00;;;;;;4906920;28;20188;-74
2021/01/18 07:24:38;;;;;;;56.58;22.77;;;-15.70;99.90;;;;;;4904878;28;20216;-75
2021/01/18 07:27:04;;;;;;;61.10;25.08;;;-15.60;99.90;;;;;;4905446;28;20193;-74
2021/01/18 07:29:27;;;;;;;61.58;22.90;;;-15.30;1.00;;;;;;4898703;28;20220;-75
2021/01/18 07:31:52;;;;;;;61.30;24.40;;;-15.10;1.00;;;;;;4913363;28;20200;-74
2021/01/18 07:34:16;;;;;;;62.65;25.40;;;-14.30;99.90;;;;;;4917732;28;20188;-74
2021/01/18 07:36:38;;;;;;;65.07;25.95;;;;;;;;;;4898654;28;20180;-74
2021/01/18 07:39:00;;;;;;;76.97;28.50;;;-13.80;1.00;;;;;;4897671;28;20239;-75
2021/01/18 07:41:30;;;;;;;63.58;25.77;;;;;;;;;;4897416;28;20201;-78
2021/01/18 07:43:52;;;;;;;61.78;24.83;;;-13.40;1.00;;;;;;4898388;28;20250;-77
2021/01/18 07:46:39;;;;;;;56.90;25.67;;;-12.70;99.90;;;;;;4918104;28;20608;-77
2021/01/18 07:49:32;;;;;;;74.50;26.38;;;-12.00;1.00;;;;;;4898511;28;20242;-77
2021/01/18 07:52:15;;;;;;;66.13;26.92;;;-11.20;1.00;;;;;;4902692;28;20645;-79
2021/01/18 07:54:37;;;;;;;77.70;30.35;;;;;;;;;;4916880;28;20184;-79
2021/01/18 07:57:27;;;;;;;76.93;30.25;;;-9.80;1.00;;;;;;4917612;28;20593;-77
2021/01/18 07:59:50;;;;;;;79.27;30.93;;;;;;;;;;4916537;28;20200;-77
2021/01/18 08:02:23;;;;;;;73.63;32.10;;;-9.10;1.00;;;;;;4914545;28;20628;-74
2021/01/18 08:04:48;;;;;;;75.40;30.13;;;-9.10;1.00;;;;;;4914508;28;20691;-74
2021/01/18 08:07:10;;;;;;;75.27;31.53;;;;;;;;;;4913033;28;20287;-74
2021/01/18 08:09:33;;;;;;;91.77;34.13;;;-9.20;99.90;;;;;;4917308;28;20624;-74
2021/01/18 08:12:29;;;;;;;91.77;34.20;;;-8.90;1.00;;;;;;4917969;28;20624;-73
2021/01/18 08:14:52;;;;;;;92.23;36.00;;;-8.80;1.00;;;;;;4896148;28;21364;-75
2021/01/18 08:17:17;;;;;;;89.40;37.50;;;-9.00;1.00;;;;;;4895985;28;20623;-75
2021/01/18 08:19:39;;;;;;;106.60;42.83;;;;;;;;;;4898153;28;20667;-74
2021/01/18 08:22:07;;;;;;;127.80;45.67;;;-9.60;1.00;;;;;;4897894;28;21172;-74
2021/01/18 08:24:52;;;;;;;106.20;40.50;;;-9.80;1.00;;;;;;4886891;28;20645;-73
2021/01/18 08:27:15;;;;;;;104.30;41.13;;;;;;;;;;4898525;28;20614;-74
2021/01/18 08:29:44;;;;;;;109.00;40.27;;;-10.40;1.00;;;;;;4917230;28;20693;-73
2021/01/18 08:32:43;;;;;;;92.23;34.67;;;-10.40;1.40;;;;;;4917163;28;20667;-73
2021/01/18 08:35:20;;;;;;;93.63;36.60;;;-10.50;88.60;;;;;;4917236;28;20569;-74
2021/01/18 08:37:51;;;;;;;146.47;50.60;;;-10.60;99.90;;;;;;4916519;28;21129;-73
2021/01/18 08:40:15;;;;;;;119.47;41.43;;;-10.60;99.90;;;;;;4917037;28;20573;-73
2021/01/18 08:42:40;;;;;;;138.97;49.60;;;-10.60;99.90;;;;;;4916798;28;20601;-75
2021/01/18 08:45:07;;;;;;;109.80;43.37;;;-10.50;99.90;;;;;;4916918;28;20632;-75
2021/01/18 08:47:37;;;;;;;124.53;46.30;;;-10.70;1.00;;;;;;4916375;28;20643;-76
2021/01/18 08:50:25;;;;;;;110.37;41.77;;;-10.40;99.90;;;;;;4898419;28;20637;-74
2021/01/18 08:52:49;;;;;;;145.30;49.27;;;-10.40;99.90;;;;;;4915033;28;20681;-75
2021/01/18 08:55:42;;;;;;;198.23;75.30;;;-10.40;99.90;;;;;;4915443;28;20650;-75
2021/01/18 08:58:05;;;;;;;136.63;52.17;;;-10.30;99.90;;;;;;4914166;28;21016;-73
2021/01/18 09:00:41;;;;;;;146.60;49.90;;;-10.20;99.90;;;;;;4912626;28;20661;-73
2021/01/18 09:03:04;;;;;;;74.67;29.23;;;-10.10;99.90;;;;;;4916154;28;20589;-74
2021/01/18 09:05:27;;;;;;;123.57;43.97;;;-10.10;1.00;;;;;;4915862;28;20642;-74
2021/01/18 09:07:50;;;;;;;72.33;29.70;;;-10.10;99.90;;;;;;4914124;28;21066;-74
2021/01/18 09:10:13;;;;;;;91.90;37.40;;;-9.90;99.90;;;;;;4897373;28;20614;-74
2021/01/18 09:12:36;;;;;;;76.77;32.73;;;;;;;;;;4913355;28;20617;-73
2021/01/18 09:15:06;;;;;;;91.67;34.53;;;-9.60;1.00;;;;;;4903235;28;21209;-74
2021/01/18 09:17:28;;;;;;;103.27;38.97;;;;;;;;;;4901711;28;20615;-75
2021/01/18 09:19:52;;;;;;;118.27;41.37;;;-8.40;1.00;;;;;;4915479;28;20954;-75
2021/01/18 09:22:14;;;;;;;134.53;47.67;;;;;;;;;;4913286;28;20612;-74
2021/01/18 09:24:38;;;;;;;119.53;42.67;;;-8.90;97.20;;;;;;4900090;28;21109;-73
2021/01/18 09:27:01;;;;;;;74.23;30.33;;;-9.00;99.90;;;;;;4896323;28;20639;-74
2021/01/18 09:29:23;;;;;;;94.97;39.33;;;;;;;;;;4901882;28;20698;-74
2021/01/18 09:31:45;;;;;;;77.57;32.83;;;;;;;;;;4913039;28;20678;-73
2021/01/18 09:34:12;;;;;;;107.10;43.07;;;-8.30;1.00;;;;;;4914691;28;20596;-74
2021/01/18 09:36:39;;;;;;;72.57;31.83;;;-8.20;1.00;;;;;;4897550;28;20622;-73
2021/01/18 09:39:05;;;;;;;66.47;28.33;;;;;;;;;;4914177;28;20662;-75
2021/01/18 09:41:29;;;;;;;84.37;31.43;;;-7.80;1.00;;;;;;4914649;28;20593;-75
2021/01/18 09:43:51;;;;;;;78.97;30.87;;;;;;;;;;4914900;28;20632;-74
2021/01/18 09:46:15;;;;;;;70.23;30.10;;;-6.90;1.00;;;;;;4908783;28;21179;-76
2021/01/18 09:48:37;;;;;;;85.87;32.50;;;;;;;;;;4877592;28;20622;-74
2021/01/18 09:51:02;;;;;;;87.00;34.93;;;-5.10;99.90;;;;;;4901701;28;20663;-74
2021/01/18 09:53:26;;;;;;;90.73;33.93;;;-4.40;1.00;;;;;;4913637;28;20666;-75
2021/01/18 09:55:51;;;;;;;104.33;40.60;;;-3.10;1.00;;;;;;4914076;28;20662;-76
2021/01/18 09:58:17;;;;;;;113.10;44.73;;;-1.70;90.30;;;;;;4914194;28;20597;-74
2021/01/18 10:00:42;;;;;;;75.50;32.23;;;-0.20;1.00;;;;;;4911267;28;21564;-75
2021/01/18 10:03:05;;;;;;;99.00;42.57;;;0.80;1.00;;;;;;4915453;28;20561;-76
2021/01/18 10:05:36;;;;;;;90.07;37.57;;;1.80;1.00;;;;;;4914005;28;20660;-75
2021/01/18 10:08:01;;;;;;;81.57;34.90;;;2.40;1.00;;;;;;4913580;28;20636;-73
2021/01/18 10:10:23;;;;;;;82.27;37.97;;;;;;;;;;4913739;28;20596;-73
2021/01/18 10:12:51;;;;;;;84.93;40.17;;;2.80;1.00;;;;;;4913606;28;21173;-74
2021/01/18 10:15:22;;;;;;;86.37;41.73;;;2.10;1.00;;;;;;4915224;28;20941;-73
2021/01/18 10:17:45;;;;;;;90.13;42.97;;;;;;;;;;4912726;28;20616;-73
2021/01/18 10:20:08;;;;;;;167.70;75.70;;;0.00;99.90;;;;;;4913178;28;20942;-74
2021/01/18 10:22:35;;;;;;;103.67;46.23;;;-0.90;99.90;;;;;;4912935;28;20674;-73
2021/01/18 10:24:59;;;;;;;86.00;39.83;;;;;;;;;;4913534;28;21287;-72
2021/01/18 10:27:25;;;;;;;79.73;38.73;;;-1.80;1.00;;;;;;4913547;28;20609;-73
2021/01/18 10:29:48;;;;;;;85.60;39.83;;;;;;;;;;4912333;28;20645;-74
2021/01/18 10:32:12;;;;;;;78.93;36.20;;;-3.00;1.00;;;;;;4913596;28;20565;-73
2021/01/18 10:34:35;;;;;;;85.77;36.60;;;-3.30;1.00;;;;;;4914704;28;20653;-73
2021/01/18 10:37:08;;;;;;;79.73;37.40;;;-3.50;1.00;;;;;;4914915;28;21007;-73
2021/01/18 10:39:33;;;;;;;89.13;37.20;;;-3.60;1.00;;;;;;4913825;28;20566;-74
2021/01/18 10:42:03;;;;;;;68.23;33.30;;;-3.70;1.00;;;;;;4912150;28;20616;-75
2021/01/18 10:44:25;;;;;;;69.90;30.97;;;;;;;;;;4914599;28;20784;-74
2021/01/18 10:46:50;;;;;;;68.40;31.10;;;-3.70;1.00;;;;;;4914807;28;21201;-73
2021/01/18 10:49:24;;;;;;;69.77;29.63;;;-3.50;1.00;;;;;;4914893;28;20608;-74
2021/01/18 10:52:01;;;;;;;70.53;30.47;;;-3.60;1.00;;;;;;4880136;28;20630;-73
2021/01/18 10:54:24;;;;;;;65.93;31.13;;;;;;;;;;4894932;28;21095;-73
2021/01/18 10:56:46;;;;;;;75.77;34.77;;;;;;;;;;4908782;28;20605;-73
2021/01/18 10:59:13;;;;;;;70.77;31.83;;;-3.20;1.00;;;;;;4915253;28;21106;-73
2021/01/18 11:01:35;;;;;;;70.13;30.93;;;;;;;;;;4910875;28;20592;-73
2021/01/18 11:04:05;;;;;;;71.90;31.47;;;-3.00;1.00;;;;;;4913901;28;21197;-74
2021/01/18 11:06:28;;;;;;;71.47;31.13;;;-3.10;37.60;;;;;;4912971;28;20620;-73
2021/01/18 11:08:52;;;;;;;70.43;33.67;;;-2.70;1.00;;;;;;4913207;28;21048;-73
2021/01/18 11:11:19;;;;;;;73.53;32.00;;;-2.60;1.00;;;;;;4912736;28;20621;-72
2021/01/18 11:13:41;;;;;;;69.23;31.67;;;;;;;;;;4910466;28;20613;-72
2021/01/18 11:16:11;;;;;;;72.30;32.27;;;-2.00;1.00;;;;;;4913227;28;20612;-73
2021/01/18 11:18:34;;;;;;;68.20;31.03;;;;;;;;;;4914601;28;20634;-73
2021/01/18 11:20:57;;;;;;;68.63;30.40;;;;;;;;;;4912332;28;20621;-74
2021/01/18 11:23:20;;;;;;;62.73;28.70;;;-1.00;1.00;;;;;;4910303;28;20614;-74
2021/01/18 11:25:42;;;;;;;62.00;31.10;;;;;;;;;;4895492;28;20674;-74
2021/01/18 11:28:09;;;;;;;64.03;31.27;;;-0.80;1.00;;;;;;4913710;28;20662;-74
2021/01/18 11:30:31;;;;;;;68.07;32.00;;;;;;;;;;4883008;28;20704;-73
2021/01/18 11:32:55;;;;;;;62.57;30.50;;;-0.30;1.00;;;;;;4913067;28;20645;-74
2021/01/18 11:35:17;;;;;;;52.53;27.60;;;;;;;;;;4912836;28;20604;-73
2021/01/18 11:37:40;;;;;;;47.90;23.50;;;0.70;1.00;;;;;;4901217;28;20589;-73
2021/01/18 11:40:07;;;;;;;48.63;24.07;;;1.00;1.00;;;;;;4894917;28;20616;-74
2021/01/18 11:42:29;;;;;;;47.43;24.67;;;;;;;;;;4903643;28;20667;-74
2021/01/18 11:44:51;;;;;;;48.43;25.07;;;;;;;;;;4894165;28;20695;-74
2021/01/18 11:47:13;;;;;;;47.93;24.43;;;;;;;;;;4892845;28;21179;-73
2021/01/18 11:49:36;;;;;;;46.20;24.07;;;;;;;;;;4894638;28;20608;-74
2021/01/18 11:51:58;;;;;;;52.33;25.13;;;;;;;;;;4894700;28;21248;-74
2021/01/18 11:54:20;;;;;;;41.80;22.60;;;;;;;;;;4912704;28;20597;-74
2021/01/18 11:56:43;;;;;;;40.17;21.60;;;1.20;1.00;;;;;;4914341;28;20620;-74
2021/01/18 11:59:05;;;;;;;40.80;21.87;;;;;;;;;;4916275;28;20949;-73
2021/01/18 12:01:27;;;;;;;39.47;20.57;;;3.10;1.00;;;;;;4914790;28;20943;-73
2021/01/18 12:03:50;;;;;;;34.03;19.47;;;;;;;;;;4917462;28;20176;-74
2021/01/18 12:06:12;;;;;;;34.60;18.93;;;4.30;1.00;;;;;;4915679;28;20673;-74
2021/01/18 12:08:34;;;;;;;30.37;18.03;;;;;;;;;;4916207;28;20200;-74
2021/01/18 12:10:56;;;;;;;27.77;16.60;;;5.20;1.00;;;;;;4916568;28;20653;-74
2021/01/18 12:13:19;;;;;;;25.07;16.07;;;5.50;1.00;;;;;;4915844;28;21000;-75
2021/01/18 12:15:41;;;;;;;25.27;15.57;;;5.40;1.00;;;;;;4915116;28;20348;-74
2021/01/18 12:18:04;;;;;;;24.53;15.47;;;5.60;1.00;;;;;;4915593;28;20614;-75
2021/01/18 12:20:26;;;;;;;24.07;16.17;;;5.80;1.00;;;;;;4910576;28;20689;-75
2021/01/18 12:22:53;;;;;;;20.07;14.20;;;6.00;1.00;;;;;;4914762;28;20304;-74
2021/01/18 12:25:15;;;;;;;25.30;14.33;;;;;;;;;;4912581;28;20215;-74
2021/01/18 12:27:38;;;;;;;18.37;11.90;;;6.10;1.00;;;;;;4914918;28;20208;-75
2021/01/18 12:30:01;;;;;;;20.20;12.03;;;5.70;1.00;;;;;;4913668;28;20290;-74
2021/01/18 12:32:23;;;;;;;19.83;11.50;;;;;;;;;;4913815;28;20670;-75
2021/01/18 12:34:45;;;;;;;13.60;9.43;;;4.90;1.00;;;;;;4916086;28;20210;-75
2021/01/18 12:37:07;;;;;;;14.70;9.53;;;;;;;;;;4914306;28;20561;-74
2021/01/18 12:39:30;;;;;;;16.13;10.83;;;;;;;;;;4914538;28;20187;-75
2021/01/18 12:41:52;;;;;;;16.63;9.80;;;6.00;1.00;;;;;;4912646;28;20192;-75
2021/01/18 12:44:16;;;;;;;14.43;9.20;;;;;;;;;;4915341;28;20223;-74
2021/01/18 12:46:39;;;;;;;12.33;9.27;;;6.50;1.00;;;;;;4915892;28;20265;-75
2021/01/18 12:49:01;;;;;;;14.07;9.47;;;6.50;1.00;;;;;;4914734;28;20257;-75
2021/01/18 12:51:23;;;;;;;12.93;9.43;;;;;;;;;;4900646;28;20645;-74
2021/01/18 12:53:45;;;;;;;11.50;8.77;;;;;;;;;;4906429;28;20245;-75
2021/01/18 12:56:08;;;;;;;12.83;8.73;;;;;;;;;;4915892;28;20184;-75